Pacoima, CA (91331)

5:36 AM PDT on August 29, 2015 (GMT -0700)
Lake View Terrace | | Change Station
CLOSE
Current Station
Personal Weather Station
Location: Los Angeles, CA
Elevation: 1148 ft
Nearby Weather Stations

Elev 1148 ft 34.28 °N, 118.40 °W | Updated 25 seconds ago

Clear
Clear
72.0 °F
Feels Like 76 °F
N
0.0
Wind Variable Wind from NNW
Gusts 0.0 mph

Today
High -- | Low -- °F
--% Chance of Precip.
Yesterday
High -- | Low -- °F
Precip. -- in
6:24 AM 7:23 PM
Full, 100% visible
Pressure 29.84 in
Visibility 10.0 miles
Clouds Clear
Heat Index 76 °F
Dew Point 56 °F
Humidity 57%
Rainfall 0.00 in
Snow Depth Not available.
UV 0.0 out of 12
Pollen 6.60 out of 12
Air Quality Not available.
Flu Activity Not available.
METAR KVNY 291151Z 00000KT 10SM CLR 24/16 A2987 RMK AO2 SLP103 T02390156 10272 20239 56003
Pressure 29.84 in
Visibility 10.0 miles
Clouds Clear
Heat Index 76 °F
Dew Point 56 °F
Humidity 57%
Rainfall 0.00 in
Snow Depth Not available.
UV 0.0 out of 12
Pollen 6.60 out of 12
Air Quality Not available.
Flu Activity Not available.
METAR KVNY 291151Z 00000KT 10SM CLR 24/16 A2987 RMK AO2 SLP103 T02390156 10272 20239 56003

10-Day Weather Forecast

×

Almanac

Astronomy

Aug. 29, 2015 Rise Set
Actual Time
Civil Twilight
Nautical Twilight
Astronomical Twilight
Moon
Length of Visible Light
Length of Day
Tomorrow will be .
, % of the Moon is Illuminated

Today's Extremes

State Highs State Lows

Community

WunderPhotos

Upload Photos

1,850,676 photos uploaded!

WunderBlogs® & News

Nearby

Air Quality

  Air Quality AQ Index Pollutant
Not available.

Snow Depth

Station Depth Elevation

Earthquake Activity

City Distance Mag. Time & Date
Minimum magnitude displayed is 2.5.

Coastal Water Temperatures

Place Temperature

Stations

Nearby Weather Stations

Station Location Temp. Windchill Dew Point Humidity Wind Precip. Elev Updated Type